sensor_id;sensor_type;location;lat;lon;timestamp;P1;durP1;ratioP1;P2;durP2;ratioP2
81160;SDS011;70637;48.514;14.500;2024-02-23T00:02:18;5.05;;;1.80;;
81160;SDS011;70637;48.514;14.500;2024-02-23T00:04:44;3.42;;;1.70;;
81160;SDS011;70637;48.514;14.500;2024-02-23T00:07:10;5.22;;;1.55;;
81160;SDS011;70637;48.514;14.500;2024-02-23T00:09:36;3.20;;;1.75;;
81160;SDS011;70637;48.514;14.500;2024-02-23T00:12:02;5.55;;;1.90;;
81160;SDS011;70637;48.514;14.500;2024-02-23T00:14:32;4.15;;;1.55;;
81160;SDS011;70637;48.514;14.500;2024-02-23T00:16:57;4.70;;;1.77;;
81160;SDS011;70637;48.514;14.500;2024-02-23T00:19:24;5.57;;;1.60;;
81160;SDS011;70637;48.514;14.500;2024-02-23T00:21:50;3.08;;;1.63;;
81160;SDS011;70637;48.514;14.500;2024-02-23T00:24:17;3.30;;;1.30;;
81160;SDS011;70637;48.514;14.500;2024-02-23T00:26:45;2.92;;;1.48;;
81160;SDS011;70637;48.514;14.500;2024-02-23T00:29:11;4.13;;;1.70;;
81160;SDS011;70637;48.514;14.500;2024-02-23T00:31:37;4.72;;;1.50;;
81160;SDS011;70637;48.514;14.500;2024-02-23T00:34:05;5.05;;;1.65;;
81160;SDS011;70637;48.514;14.500;2024-02-23T00:36:35;2.80;;;1.25;;
81160;SDS011;70637;48.514;14.500;2024-02-23T00:39:03;5.47;;;1.60;;
81160;SDS011;70637;48.514;14.500;2024-02-23T00:41:30;2.78;;;1.60;;
81160;SDS011;70637;48.514;14.500;2024-02-23T00:43:55;4.68;;;1.40;;
81160;SDS011;70637;48.514;14.500;2024-02-23T00:46:21;4.20;;;1.55;;
81160;SDS011;70637;48.514;14.500;2024-02-23T00:48:47;4.30;;;1.73;;
81160;SDS011;70637;48.514;14.500;2024-02-23T00:51:12;5.88;;;1.67;;
81160;SDS011;70637;48.514;14.500;2024-02-23T00:53:38;4.00;;;1.50;;
81160;SDS011;70637;48.514;14.500;2024-02-23T00:56:03;3.45;;;1.50;;
81160;SDS011;70637;48.514;14.500;2024-02-23T00:58:30;2.25;;;1.55;;
81160;SDS011;70637;48.514;14.500;2024-02-23T01:00:56;5.00;;;1.52;;
81160;SDS011;70637;48.514;14.500;2024-02-23T01:03:22;3.03;;;1.50;;
81160;SDS011;70637;48.514;14.500;2024-02-23T01:05:48;4.18;;;1.58;;
81160;SDS011;70637;48.514;14.500;2024-02-23T01:08:13;3.47;;;1.85;;
81160;SDS011;70637;48.514;14.500;2024-02-23T01:10:40;4.13;;;1.40;;
81160;SDS011;70637;48.514;14.500;2024-02-23T01:13:06;5.55;;;1.75;;
81160;SDS011;70637;48.514;14.500;2024-02-23T01:15:31;3.55;;;1.40;;
81160;SDS011;70637;48.514;14.500;2024-02-23T01:17:57;4.20;;;1.73;;
81160;SDS011;70637;48.514;14.500;2024-02-23T01:20:22;4.55;;;1.45;;
81160;SDS011;70637;48.514;14.500;2024-02-23T01:22:48;2.95;;;1.52;;
81160;SDS011;70637;48.514;14.500;2024-02-23T01:25:13;2.78;;;1.27;;
81160;SDS011;70637;48.514;14.500;2024-02-23T01:27:40;2.17;;;1.30;;
81160;SDS011;70637;48.514;14.500;2024-02-23T01:30:07;2.70;;;1.20;;
81160;SDS011;70637;48.514;14.500;2024-02-23T01:32:33;2.30;;;1.25;;
81160;SDS011;70637;48.514;14.500;2024-02-23T01:34:58;2.40;;;1.30;;
81160;SDS011;70637;48.514;14.500;2024-02-23T01:37:24;2.60;;;1.40;;
81160;SDS011;70637;48.514;14.500;2024-02-23T01:39:49;4.03;;;1.55;;
81160;SDS011;70637;48.514;14.500;2024-02-23T01:42:15;3.08;;;1.45;;
81160;SDS011;70637;48.514;14.500;2024-02-23T01:44:41;3.30;;;1.65;;
81160;SDS011;70637;48.514;14.500;2024-02-23T01:47:06;1.45;;;1.20;;
81160;SDS011;70637;48.514;14.500;2024-02-23T01:49:32;2.75;;;1.30;;
81160;SDS011;70637;48.514;14.500;2024-02-23T01:52:00;2.47;;;1.35;;
81160;SDS011;70637;48.514;14.500;2024-02-23T01:54:26;2.45;;;1.35;;
81160;SDS011;70637;48.514;14.500;2024-02-23T01:56:53;3.20;;;1.60;;
81160;SDS011;70637;48.514;14.500;2024-02-23T01:59:20;2.35;;;1.38;;
81160;SDS011;70637;48.514;14.500;2024-02-23T02:01:47;3.70;;;1.25;;
81160;SDS011;70637;48.514;14.500;2024-02-23T02:04:12;3.70;;;1.58;;
81160;SDS011;70637;48.514;14.500;2024-02-23T02:06:38;3.55;;;1.48;;
81160;SDS011;70637;48.514;14.500;2024-02-23T02:09:04;3.85;;;1.30;;
81160;SDS011;70637;48.514;14.500;2024-02-23T02:11:30;2.88;;;1.40;;
81160;SDS011;70637;48.514;14.500;2024-02-23T02:13:56;2.28;;;1.30;;
81160;SDS011;70637;48.514;14.500;2024-02-23T02:16:22;3.53;;;1.55;;
81160;SDS011;70637;48.514;14.500;2024-02-23T02:18:47;6.03;;;1.70;;
81160;SDS011;70637;48.514;14.500;2024-02-23T02:21:13;3.20;;;1.50;;
81160;SDS011;70637;48.514;14.500;2024-02-23T02:23:39;2.90;;;1.33;;
81160;SDS011;70637;48.514;14.500;2024-02-23T02:26:05;4.70;;;1.75;;
81160;SDS011;70637;48.514;14.500;2024-02-23T02:28:31;2.40;;;1.20;;
81160;SDS011;70637;48.514;14.500;2024-02-23T02:30:56;3.63;;;1.58;;
81160;SDS011;70637;48.514;14.500;2024-02-23T02:33:22;3.85;;;1.50;;
81160;SDS011;70637;48.514;14.500;2024-02-23T02:35:48;3.05;;;1.50;;
81160;SDS011;70637;48.514;14.500;2024-02-23T02:38:15;2.25;;;1.23;;
81160;SDS011;70637;48.514;14.500;2024-02-23T02:40:41;1.95;;;1.40;;
81160;SDS011;70637;48.514;14.500;2024-02-23T02:43:07;2.95;;;1.30;;
81160;SDS011;70637;48.514;14.500;2024-02-23T02:45:32;2.95;;;1.30;;
81160;SDS011;70637;48.514;14.500;2024-02-23T02:47:59;2.40;;;1.20;;
81160;SDS011;70637;48.514;14.500;2024-02-23T02:50:27;3.30;;;1.48;;
81160;SDS011;70637;48.514;14.500;2024-02-23T02:52:52;3.22;;;1.25;;
81160;SDS011;70637;48.514;14.500;2024-02-23T02:55:18;2.25;;;1.27;;
81160;SDS011;70637;48.514;14.500;2024-02-23T02:57:44;2.20;;;1.20;;
81160;SDS011;70637;48.514;14.500;2024-02-23T03:00:10;2.47;;;1.40;;
81160;SDS011;70637;48.514;14.500;2024-02-23T03:02:37;3.22;;;1.50;;
81160;SDS011;70637;48.514;14.500;2024-02-23T03:05:02;1.83;;;1.20;;
81160;SDS011;70637;48.514;14.500;2024-02-23T03:07:28;2.80;;;1.40;;
81160;SDS011;70637;48.514;14.500;2024-02-23T03:09:54;2.85;;;1.30;;
81160;SDS011;70637;48.514;14.500;2024-02-23T03:12:20;2.55;;;1.20;;
81160;SDS011;70637;48.514;14.500;2024-02-23T03:14:45;2.88;;;1.40;;
81160;SDS011;70637;48.514;14.500;2024-02-23T03:40:19;2.10;;;1.20;;
81160;SDS011;70637;48.514;14.500;2024-02-23T03:42:44;3.00;;;1.20;;
81160;SDS011;70637;48.514;14.500;2024-02-23T03:45:10;3.92;;;1.30;;
81160;SDS011;70637;48.514;14.500;2024-02-23T03:47:36;2.17;;;1.20;;
81160;SDS011;70637;48.514;14.500;2024-02-23T03:50:01;1.75;;;1.10;;
81160;SDS011;70637;48.514;14.500;2024-02-23T03:52:27;1.70;;;1.00;;
81160;SDS011;70637;48.514;14.500;2024-02-23T03:54:52;2.28;;;1.23;;
81160;SDS011;70637;48.514;14.500;2024-02-23T03:57:19;2.38;;;1.15;;
81160;SDS011;70637;48.514;14.500;2024-02-23T03:59:52;1.63;;;1.20;;
81160;SDS011;70637;48.514;14.500;2024-02-23T04:02:18;1.90;;;1.08;;
81160;SDS011;70637;48.514;14.500;2024-02-23T04:04:44;1.90;;;1.17;;
81160;SDS011;70637;48.514;14.500;2024-02-23T04:07:09;1.83;;;1.02;;
81160;SDS011;70637;48.514;14.500;2024-02-23T04:09:35;1.48;;;1.02;;
81160;SDS011;70637;48.514;14.500;2024-02-23T04:12:01;2.75;;;1.20;;
81160;SDS011;70637;48.514;14.500;2024-02-23T04:14:27;1.63;;;0.98;;
81160;SDS011;70637;48.514;14.500;2024-02-23T04:16:52;2.03;;;1.27;;
81160;SDS011;70637;48.514;14.500;2024-02-23T04:19:18;1.92;;;1.10;;
81160;SDS011;70637;48.514;14.500;2024-02-23T04:21:44;1.73;;;1.13;;
81160;SDS011;70637;48.514;14.500;2024-02-23T04:24:10;1.63;;;1.05;;
81160;SDS011;70637;48.514;14.500;2024-02-23T04:26:35;2.17;;;1.00;;
81160;SDS011;70637;48.514;14.500;2024-02-23T04:29:01;1.17;;;0.93;;
81160;SDS011;70637;48.514;14.500;2024-02-23T04:31:26;2.10;;;1.20;;
81160;SDS011;70637;48.514;14.500;2024-02-23T04:33:52;2.70;;;1.30;;
81160;SDS011;70637;48.514;14.500;2024-02-23T04:36:21;1.92;;;1.13;;
81160;SDS011;70637;48.514;14.500;2024-02-23T04:38:46;2.45;;;1.08;;
81160;SDS011;70637;48.514;14.500;2024-02-23T04:41:12;1.48;;;1.10;;
81160;SDS011;70637;48.514;14.500;2024-02-23T04:43:38;2.40;;;1.10;;
81160;SDS011;70637;48.514;14.500;2024-02-23T04:46:04;2.42;;;1.20;;
81160;SDS011;70637;48.514;14.500;2024-02-23T04:48:29;1.85;;;1.20;;
81160;SDS011;70637;48.514;14.500;2024-02-23T04:50:58;2.60;;;1.20;;
81160;SDS011;70637;48.514;14.500;2024-02-23T04:53:24;2.67;;;1.38;;
81160;SDS011;70637;48.514;14.500;2024-02-23T04:55:49;1.65;;;1.10;;
81160;SDS011;70637;48.514;14.500;2024-02-23T04:58:15;2.70;;;1.15;;
81160;SDS011;70637;48.514;14.500;2024-02-23T05:00:41;1.95;;;1.08;;
81160;SDS011;70637;48.514;14.500;2024-02-23T05:03:07;3.75;;;1.02;;
81160;SDS011;70637;48.514;14.500;2024-02-23T05:05:33;2.38;;;1.02;;
81160;SDS011;70637;48.514;14.500;2024-02-23T05:08:00;1.98;;;1.08;;
81160;SDS011;70637;48.514;14.500;2024-02-23T05:10:26;1.70;;;1.02;;
81160;SDS011;70637;48.514;14.500;2024-02-23T05:12:51;1.90;;;1.20;;
81160;SDS011;70637;48.514;14.500;2024-02-23T05:15:17;3.00;;;1.30;;
81160;SDS011;70637;48.514;14.500;2024-02-23T05:17:43;1.95;;;1.17;;
81160;SDS011;70637;48.514;14.500;2024-02-23T05:20:08;1.80;;;0.90;;
81160;SDS011;70637;48.514;14.500;2024-02-23T05:22:36;1.20;;;0.90;;
81160;SDS011;70637;48.514;14.500;2024-02-23T05:25:03;2.28;;;1.10;;
81160;SDS011;70637;48.514;14.500;2024-02-23T05:27:30;1.58;;;0.93;;
81160;SDS011;70637;48.514;14.500;2024-02-23T05:29:56;2.30;;;1.00;;
81160;SDS011;70637;48.514;14.500;2024-02-23T05:32:21;1.77;;;1.30;;
81160;SDS011;70637;48.514;14.500;2024-02-23T05:34:47;1.70;;;1.00;;
81160;SDS011;70637;48.514;14.500;2024-02-23T05:37:16;1.98;;;1.00;;
81160;SDS011;70637;48.514;14.500;2024-02-23T05:39:42;2.45;;;1.20;;
81160;SDS011;70637;48.514;14.500;2024-02-23T05:42:08;1.52;;;1.10;;
81160;SDS011;70637;48.514;14.500;2024-02-23T05:44:33;1.77;;;1.05;;
81160;SDS011;70637;48.514;14.500;2024-02-23T05:46:59;1.65;;;1.10;;
81160;SDS011;70637;48.514;14.500;2024-02-23T05:49:25;1.13;;;0.90;;
81160;SDS011;70637;48.514;14.500;2024-02-23T05:51:50;1.70;;;0.90;;
81160;SDS011;70637;48.514;14.500;2024-02-23T05:54:16;1.42;;;0.90;;
81160;SDS011;70637;48.514;14.500;2024-02-23T05:56:43;1.40;;;1.00;;
81160;SDS011;70637;48.514;14.500;2024-02-23T05:59:09;2.42;;;0.90;;
81160;SDS011;70637;48.514;14.500;2024-02-23T06:01:35;1.40;;;0.82;;
81160;SDS011;70637;48.514;14.500;2024-02-23T06:04:01;1.63;;;1.10;;
81160;SDS011;70637;48.514;14.500;2024-02-23T06:06:27;1.67;;;1.02;;
81160;SDS011;70637;48.514;14.500;2024-02-23T06:08:53;1.73;;;1.10;;
81160;SDS011;70637;48.514;14.500;2024-02-23T06:11:19;1.60;;;1.00;;
81160;SDS011;70637;48.514;14.500;2024-02-23T06:13:45;1.80;;;1.00;;
81160;SDS011;70637;48.514;14.500;2024-02-23T06:16:10;1.63;;;0.90;;
81160;SDS011;70637;48.514;14.500;2024-02-23T06:18:37;1.75;;;1.05;;
81160;SDS011;70637;48.514;14.500;2024-02-23T06:21:12;1.30;;;1.10;;
81160;SDS011;70637;48.514;14.500;2024-02-23T06:23:42;1.48;;;0.85;;
81160;SDS011;70637;48.514;14.500;2024-02-23T06:26:09;1.90;;;0.90;;
81160;SDS011;70637;48.514;14.500;2024-02-23T06:28:34;2.90;;;0.90;;
81160;SDS011;70637;48.514;14.500;2024-02-23T06:31:02;1.92;;;1.08;;
81160;SDS011;70637;48.514;14.500;2024-02-23T06:33:29;2.00;;;1.00;;
81160;SDS011;70637;48.514;14.500;2024-02-23T06:35:55;2.15;;;1.10;;
81160;SDS011;70637;48.514;14.500;2024-02-23T06:38:21;1.23;;;0.90;;
81160;SDS011;70637;48.514;14.500;2024-02-23T06:40:47;1.52;;;0.90;;
81160;SDS011;70637;48.514;14.500;2024-02-23T06:43:12;1.13;;;0.80;;
81160;SDS011;70637;48.514;14.500;2024-02-23T06:45:38;0.93;;;0.70;;
81160;SDS011;70637;48.514;14.500;2024-02-23T06:48:04;1.73;;;0.88;;
81160;SDS011;70637;48.514;14.500;2024-02-23T06:50:30;1.17;;;0.80;;
81160;SDS011;70637;48.514;14.500;2024-02-23T06:52:56;1.70;;;0.88;;
81160;SDS011;70637;48.514;14.500;2024-02-23T06:55:21;1.58;;;0.77;;
81160;SDS011;70637;48.514;14.500;2024-02-23T06:57:47;2.15;;;0.85;;
81160;SDS011;70637;48.514;14.500;2024-02-23T07:00:13;1.38;;;0.70;;
81160;SDS011;70637;48.514;14.500;2024-02-23T07:02:39;0.98;;;0.80;;
81160;SDS011;70637;48.514;14.500;2024-02-23T07:05:05;1.58;;;0.88;;
81160;SDS011;70637;48.514;14.500;2024-02-23T07:07:32;1.70;;;0.80;;
81160;SDS011;70637;48.514;14.500;2024-02-23T07:10:01;1.15;;;0.80;;
81160;SDS011;70637;48.514;14.500;2024-02-23T07:12:27;1.40;;;0.82;;
81160;SDS011;70637;48.514;14.500;2024-02-23T07:14:54;1.38;;;0.88;;
81160;SDS011;70637;48.514;14.500;2024-02-23T07:17:20;1.90;;;0.90;;
81160;SDS011;70637;48.514;14.500;2024-02-23T07:19:46;2.55;;;0.90;;
81160;SDS011;70637;48.514;14.500;2024-02-23T07:22:12;1.30;;;0.60;;
81160;SDS011;70637;48.514;14.500;2024-02-23T07:24:42;1.63;;;0.90;;
81160;SDS011;70637;48.514;14.500;2024-02-23T07:27:07;1.50;;;0.95;;
81160;SDS011;70637;48.514;14.500;2024-02-23T07:29:33;1.75;;;0.95;;
81160;SDS011;70637;48.514;14.500;2024-02-23T07:31:59;3.17;;;1.10;;
81160;SDS011;70637;48.514;14.500;2024-02-23T07:34:25;1.77;;;1.00;;
81160;SDS011;70637;48.514;14.500;2024-02-23T07:36:54;1.20;;;0.90;;
81160;SDS011;70637;48.514;14.500;2024-02-23T07:39:20;2.88;;;0.82;;
81160;SDS011;70637;48.514;14.500;2024-02-23T07:41:47;1.88;;;0.90;;
81160;SDS011;70637;48.514;14.500;2024-02-23T07:44:12;1.60;;;0.90;;
81160;SDS011;70637;48.514;14.500;2024-02-23T07:46:38;4.50;;;1.05;;
81160;SDS011;70637;48.514;14.500;2024-02-23T07:49:04;2.60;;;1.27;;
81160;SDS011;70637;48.514;14.500;2024-02-23T07:51:31;2.60;;;1.08;;
81160;SDS011;70637;48.514;14.500;2024-02-23T07:53:57;4.05;;;1.20;;
81160;SDS011;70637;48.514;14.500;2024-02-23T07:56:23;3.28;;;1.40;;
81160;SDS011;70637;48.514;14.500;2024-02-23T07:58:48;5.10;;;1.73;;
81160;SDS011;70637;48.514;14.500;2024-02-23T08:01:14;9.30;;;2.33;;
81160;SDS011;70637;48.514;14.500;2024-02-23T08:03:40;6.95;;;2.03;;
81160;SDS011;70637;48.514;14.500;2024-02-23T08:06:06;8.73;;;2.10;;
81160;SDS011;70637;48.514;14.500;2024-02-23T08:08:32;8.90;;;2.90;;
81160;SDS011;70637;48.514;14.500;2024-02-23T08:11:04;7.80;;;2.33;;
81160;SDS011;70637;48.514;14.500;2024-02-23T08:13:30;11.75;;;2.50;;
81160;SDS011;70637;48.514;14.500;2024-02-23T08:15:57;9.38;;;2.85;;
81160;SDS011;70637;48.514;14.500;2024-02-23T08:18:23;6.70;;;2.30;;
81160;SDS011;70637;48.514;14.500;2024-02-23T08:20:48;8.20;;;2.38;;
81160;SDS011;70637;48.514;14.500;2024-02-23T08:23:14;10.20;;;2.70;;
81160;SDS011;70637;48.514;14.500;2024-02-23T08:25:40;7.88;;;2.53;;
81160;SDS011;70637;48.514;14.500;2024-02-23T08:28:06;7.75;;;2.42;;
81160;SDS011;70637;48.514;14.500;2024-02-23T08:30:32;8.07;;;2.50;;
81160;SDS011;70637;48.514;14.500;2024-02-23T08:32:58;6.93;;;2.13;;
81160;SDS011;70637;48.514;14.500;2024-02-23T08:35:24;9.65;;;2.20;;
81160;SDS011;70637;48.514;14.500;2024-02-23T08:37:50;8.57;;;2.78;;
81160;SDS011;70637;48.514;14.500;2024-02-23T08:40:16;8.55;;;2.58;;
81160;SDS011;70637;48.514;14.500;2024-02-23T08:42:41;7.80;;;2.40;;
81160;SDS011;70637;48.514;14.500;2024-02-23T08:45:07;9.40;;;2.42;;
81160;SDS011;70637;48.514;14.500;2024-02-23T08:47:34;7.03;;;2.50;;
81160;SDS011;70637;48.514;14.500;2024-02-23T08:50:01;6.53;;;2.20;;
81160;SDS011;70637;48.514;14.500;2024-02-23T08:52:27;6.05;;;2.17;;
81160;SDS011;70637;48.514;14.500;2024-02-23T08:54:53;8.93;;;2.63;;
81160;SDS011;70637;48.514;14.500;2024-02-23T08:57:19;9.23;;;2.60;;
81160;SDS011;70637;48.514;14.500;2024-02-23T08:59:45;7.28;;;2.60;;
81160;SDS011;70637;48.514;14.500;2024-02-23T09:02:12;7.80;;;2.58;;
81160;SDS011;70637;48.514;14.500;2024-02-23T09:04:37;8.02;;;2.28;;
81160;SDS011;70637;48.514;14.500;2024-02-23T09:07:03;7.72;;;2.50;;
81160;SDS011;70637;48.514;14.500;2024-02-23T09:09:30;7.93;;;2.17;;
81160;SDS011;70637;48.514;14.500;2024-02-23T09:11:56;6.43;;;2.45;;
81160;SDS011;70637;48.514;14.500;2024-02-23T09:14:22;6.70;;;2.20;;
81160;SDS011;70637;48.514;14.500;2024-02-23T09:16:47;5.80;;;2.17;;
81160;SDS011;70637;48.514;14.500;2024-02-23T09:19:16;13.68;;;2.47;;
81160;SDS011;70637;48.514;14.500;2024-02-23T09:21:42;8.32;;;2.42;;
81160;SDS011;70637;48.514;14.500;2024-02-23T09:24:09;8.85;;;2.83;;
81160;SDS011;70637;48.514;14.500;2024-02-23T09:26:35;6.82;;;2.40;;
81160;SDS011;70637;48.514;14.500;2024-02-23T09:29:00;9.05;;;2.22;;
81160;SDS011;70637;48.514;14.500;2024-02-23T09:31:26;8.50;;;2.15;;
81160;SDS011;70637;48.514;14.500;2024-02-23T09:33:54;6.57;;;2.08;;
81160;SDS011;70637;48.514;14.500;2024-02-23T09:36:20;6.47;;;2.17;;
81160;SDS011;70637;48.514;14.500;2024-02-23T09:38:46;8.20;;;2.20;;
81160;SDS011;70637;48.514;14.500;2024-02-23T09:41:20;5.72;;;2.15;;
81160;SDS011;70637;48.514;14.500;2024-02-23T09:43:46;6.63;;;2.20;;
81160;SDS011;70637;48.514;14.500;2024-02-23T09:46:14;7.28;;;2.17;;
81160;SDS011;70637;48.514;14.500;2024-02-23T09:48:44;6.18;;;1.80;;
81160;SDS011;70637;48.514;14.500;2024-02-23T09:51:11;4.80;;;1.83;;
81160;SDS011;70637;48.514;14.500;2024-02-23T09:53:38;6.10;;;1.90;;
81160;SDS011;70637;48.514;14.500;2024-02-23T09:56:04;9.82;;;2.40;;
81160;SDS011;70637;48.514;14.500;2024-02-23T09:58:31;5.43;;;1.92;;
81160;SDS011;70637;48.514;14.500;2024-02-23T10:00:58;6.70;;;1.90;;
81160;SDS011;70637;48.514;14.500;2024-02-23T10:03:27;5.88;;;1.70;;
81160;SDS011;70637;48.514;14.500;2024-02-23T10:05:58;5.13;;;1.52;;
81160;SDS011;70637;48.514;14.500;2024-02-23T10:08:27;5.80;;;2.05;;
81160;SDS011;70637;48.514;14.500;2024-02-23T10:10:54;9.40;;;2.05;;
81160;SDS011;70637;48.514;14.500;2024-02-23T10:13:21;5.03;;;1.75;;
81160;SDS011;70637;48.514;14.500;2024-02-23T10:15:49;6.32;;;1.85;;
81160;SDS011;70637;48.514;14.500;2024-02-23T10:18:18;7.28;;;1.90;;
81160;SDS011;70637;48.514;14.500;2024-02-23T10:20:44;6.03;;;1.90;;
81160;SDS011;70637;48.514;14.500;2024-02-23T10:23:11;7.05;;;2.03;;
81160;SDS011;70637;48.514;14.500;2024-02-23T10:25:37;6.10;;;1.80;;
81160;SDS011;70637;48.514;14.500;2024-02-23T10:28:03;4.95;;;1.70;;
81160;SDS011;70637;48.514;14.500;2024-02-23T10:30:30;6.40;;;1.85;;
81160;SDS011;70637;48.514;14.500;2024-02-23T10:32:57;5.82;;;1.70;;
81160;SDS011;70637;48.514;14.500;2024-02-23T10:35:23;5.88;;;1.90;;
81160;SDS011;70637;48.514;14.500;2024-02-23T10:37:50;7.13;;;1.30;;
81160;SDS011;70637;48.514;14.500;2024-02-23T10:40:17;4.50;;;1.83;;
81160;SDS011;70637;48.514;14.500;2024-02-23T10:42:45;5.47;;;1.88;;
81160;SDS011;70637;48.514;14.500;2024-02-23T10:45:17;5.72;;;1.75;;
81160;SDS011;70637;48.514;14.500;2024-02-23T10:47:43;2.67;;;1.30;;
81160;SDS011;70637;48.514;14.500;2024-02-23T10:50:10;5.18;;;1.73;;
81160;SDS011;70637;48.514;14.500;2024-02-23T10:52:40;5.40;;;1.58;;
81160;SDS011;70637;48.514;14.500;2024-02-23T10:55:08;4.30;;;1.48;;
81160;SDS011;70637;48.514;14.500;2024-02-23T10:57:37;5.32;;;1.92;;
81160;SDS011;70637;48.514;14.500;2024-02-23T11:00:04;4.32;;;1.40;;
81160;SDS011;70637;48.514;14.500;2024-02-23T11:02:40;3.47;;;1.55;;
81160;SDS011;70637;48.514;14.500;2024-02-23T11:05:09;5.38;;;1.65;;
81160;SDS011;70637;48.514;14.500;2024-02-23T11:07:40;4.40;;;1.52;;
81160;SDS011;70637;48.514;14.500;2024-02-23T11:10:06;3.72;;;1.38;;
81160;SDS011;70637;48.514;14.500;2024-02-23T11:12:34;3.85;;;1.50;;
81160;SDS011;70637;48.514;14.500;2024-02-23T11:15:00;3.65;;;1.45;;
81160;SDS011;70637;48.514;14.500;2024-02-23T11:17:27;5.35;;;1.65;;
81160;SDS011;70637;48.514;14.500;2024-02-23T11:19:55;3.42;;;1.40;;
81160;SDS011;70637;48.514;14.500;2024-02-23T11:22:25;6.40;;;1.55;;
81160;SDS011;70637;48.514;14.500;2024-02-23T11:24:59;3.67;;;1.53;;
81160;SDS011;70637;48.514;14.500;2024-02-23T11:27:31;4.93;;;1.70;;
81160;SDS011;70637;48.514;14.500;2024-02-23T11:29:59;5.60;;;1.58;;
81160;SDS011;70637;48.514;14.500;2024-02-23T11:32:34;4.43;;;1.58;;
81160;SDS011;70637;48.514;14.500;2024-02-23T11:35:08;4.22;;;1.73;;
81160;SDS011;70637;48.514;14.500;2024-02-23T11:40:12;3.05;;;1.20;;
81160;SDS011;70637;48.514;14.500;2024-02-23T11:42:38;5.10;;;1.65;;
81160;SDS011;70637;48.514;14.500;2024-02-23T11:45:08;3.47;;;1.08;;
81160;SDS011;70637;48.514;14.500;2024-02-23T11:47:36;3.45;;;1.60;;
81160;SDS011;70637;48.514;14.500;2024-02-23T11:50:02;4.40;;;1.70;;
81160;SDS011;70637;48.514;14.500;2024-02-23T11:52:29;3.60;;;1.58;;
81160;SDS011;70637;48.514;14.500;2024-02-23T11:54:55;3.47;;;1.40;;
81160;SDS011;70637;48.514;14.500;2024-02-23T11:57:21;3.67;;;1.58;;
81160;SDS011;70637;48.514;14.500;2024-02-23T11:59:47;4.10;;;1.42;;
81160;SDS011;70637;48.514;14.500;2024-02-23T12:02:15;4.65;;;1.40;;
81160;SDS011;70637;48.514;14.500;2024-02-23T12:04:41;3.92;;;1.30;;
81160;SDS011;70637;48.514;14.500;2024-02-23T12:07:06;4.20;;;1.50;;
81160;SDS011;70637;48.514;14.500;2024-02-23T12:09:33;3.50;;;1.42;;
81160;SDS011;70637;48.514;14.500;2024-02-23T12:11:59;4.18;;;1.40;;
81160;SDS011;70637;48.514;14.500;2024-02-23T12:14:24;2.80;;;1.15;;
81160;SDS011;70637;48.514;14.500;2024-02-23T12:16:51;5.20;;;1.35;;
81160;SDS011;70637;48.514;14.500;2024-02-23T12:19:17;3.15;;;1.35;;
81160;SDS011;70637;48.514;14.500;2024-02-23T12:21:46;4.88;;;1.60;;
81160;SDS011;70637;48.514;14.500;2024-02-23T12:24:12;4.20;;;1.50;;
81160;SDS011;70637;48.514;14.500;2024-02-23T12:26:38;3.88;;;1.63;;
81160;SDS011;70637;48.514;14.500;2024-02-23T12:29:03;4.07;;;1.63;;
81160;SDS011;70637;48.514;14.500;2024-02-23T12:31:31;4.72;;;1.52;;
81160;SDS011;70637;48.514;14.500;2024-02-23T12:33:57;3.95;;;1.50;;
81160;SDS011;70637;48.514;14.500;2024-02-23T12:36:23;4.35;;;1.55;;
81160;SDS011;70637;48.514;14.500;2024-02-23T12:38:49;3.78;;;1.42;;
81160;SDS011;70637;48.514;14.500;2024-02-23T12:41:15;6.60;;;1.23;;
81160;SDS011;70637;48.514;14.500;2024-02-23T12:43:40;4.88;;;1.55;;
81160;SDS011;70637;48.514;14.500;2024-02-23T12:46:06;3.97;;;1.65;;
81160;SDS011;70637;48.514;14.500;2024-02-23T12:48:34;2.75;;;1.25;;
81160;SDS011;70637;48.514;14.500;2024-02-23T12:51:00;2.55;;;1.20;;
81160;SDS011;70637;48.514;14.500;2024-02-23T12:53:39;2.63;;;1.20;;
81160;SDS011;70637;48.514;14.500;2024-02-23T12:56:09;2.60;;;1.27;;
81160;SDS011;70637;48.514;14.500;2024-02-23T12:58:36;4.78;;;1.20;;
81160;SDS011;70637;48.514;14.500;2024-02-23T13:01:03;3.08;;;1.20;;
81160;SDS011;70637;48.514;14.500;2024-02-23T13:03:31;4.00;;;1.27;;
81160;SDS011;70637;48.514;14.500;2024-02-23T13:05:56;4.80;;;1.52;;
81160;SDS011;70637;48.514;14.500;2024-02-23T13:08:23;4.32;;;1.58;;
81160;SDS011;70637;48.514;14.500;2024-02-23T13:10:49;3.95;;;1.25;;
81160;SDS011;70637;48.514;14.500;2024-02-23T13:13:16;5.28;;;1.45;;
81160;SDS011;70637;48.514;14.500;2024-02-23T13:15:42;2.10;;;1.00;;
81160;SDS011;70637;48.514;14.500;2024-02-23T13:18:11;4.00;;;1.58;;
81160;SDS011;70637;48.514;14.500;2024-02-23T13:20:37;3.72;;;1.25;;
81160;SDS011;70637;48.514;14.500;2024-02-23T13:23:03;2.83;;;1.10;;
81160;SDS011;70637;48.514;14.500;2024-02-23T13:25:30;3.47;;;1.20;;
81160;SDS011;70637;48.514;14.500;2024-02-23T13:27:56;2.75;;;1.20;;
81160;SDS011;70637;48.514;14.500;2024-02-23T13:30:22;4.25;;;1.20;;
81160;SDS011;70637;48.514;14.500;2024-02-23T13:32:48;3.00;;;1.33;;
81160;SDS011;70637;48.514;14.500;2024-02-23T13:35:14;3.15;;;1.20;;
81160;SDS011;70637;48.514;14.500;2024-02-23T13:37:41;2.83;;;1.20;;
81160;SDS011;70637;48.514;14.500;2024-02-23T13:40:08;2.22;;;1.10;;
81160;SDS011;70637;48.514;14.500;2024-02-23T13:42:34;3.38;;;1.23;;
81160;SDS011;70637;48.514;14.500;2024-02-23T13:45:01;2.22;;;1.10;;
81160;SDS011;70637;48.514;14.500;2024-02-23T13:47:26;2.58;;;1.17;;
81160;SDS011;70637;48.514;14.500;2024-02-23T13:49:52;2.35;;;1.17;;
81160;SDS011;70637;48.514;14.500;2024-02-23T13:52:18;3.15;;;1.30;;
81160;SDS011;70637;48.514;14.500;2024-02-23T13:54:44;3.63;;;1.27;;
81160;SDS011;70637;48.514;14.500;2024-02-23T13:57:09;4.15;;;1.20;;
81160;SDS011;70637;48.514;14.500;2024-02-23T13:59:36;4.55;;;1.20;;
81160;SDS011;70637;48.514;14.500;2024-02-23T14:02:01;2.67;;;1.20;;
81160;SDS011;70637;48.514;14.500;2024-02-23T14:04:28;3.08;;;1.10;;
81160;SDS011;70637;48.514;14.500;2024-02-23T14:06:53;3.08;;;1.10;;
81160;SDS011;70637;48.514;14.500;2024-02-23T14:09:19;2.65;;;1.00;;
81160;SDS011;70637;48.514;14.500;2024-02-23T14:11:44;3.10;;;1.10;;
81160;SDS011;70637;48.514;14.500;2024-02-23T14:14:10;3.08;;;1.20;;
81160;SDS011;70637;48.514;14.500;2024-02-23T14:16:36;2.63;;;1.25;;
81160;SDS011;70637;48.514;14.500;2024-02-23T14:19:02;3.00;;;1.10;;
81160;SDS011;70637;48.514;14.500;2024-02-23T14:21:28;3.17;;;1.08;;
81160;SDS011;70637;48.514;14.500;2024-02-23T14:23:54;2.05;;;1.02;;
81160;SDS011;70637;48.514;14.500;2024-02-23T14:26:19;2.92;;;1.23;;
81160;SDS011;70637;48.514;14.500;2024-02-23T14:28:45;2.88;;;1.10;;
81160;SDS011;70637;48.514;14.500;2024-02-23T14:31:10;2.60;;;1.10;;
81160;SDS011;70637;48.514;14.500;2024-02-23T14:33:36;4.53;;;1.30;;
81160;SDS011;70637;48.514;14.500;2024-02-23T14:36:02;2.88;;;1.10;;
81160;SDS011;70637;48.514;14.500;2024-02-23T14:38:28;2.00;;;1.10;;
81160;SDS011;70637;48.514;14.500;2024-02-23T14:40:53;3.38;;;1.33;;
81160;SDS011;70637;48.514;14.500;2024-02-23T14:43:19;4.40;;;1.38;;
81160;SDS011;70637;48.514;14.500;2024-02-23T14:45:45;2.50;;;0.90;;
81160;SDS011;70637;48.514;14.500;2024-02-23T14:48:11;2.28;;;0.85;;
81160;SDS011;70637;48.514;14.500;2024-02-23T14:50:36;2.90;;;1.10;;
81160;SDS011;70637;48.514;14.500;2024-02-23T14:53:02;1.70;;;0.90;;
81160;SDS011;70637;48.514;14.500;2024-02-23T14:55:28;2.88;;;1.42;;